createdAt,value
2022-10-06T00:01:03.685Z,14.60
2022-10-06T00:03:31.094Z,14.30
2022-10-06T00:06:02.795Z,14.10
2022-10-06T00:08:38.207Z,13.90
2022-10-06T00:11:06.557Z,14.00
2022-10-06T00:13:34.484Z,15.30
2022-10-06T00:16:02.596Z,13.90
2022-10-06T00:18:30.670Z,13.80
2022-10-06T00:21:01.045Z,13.80
2022-10-06T00:23:29.138Z,14.00
2022-10-06T00:25:56.978Z,14.70
2022-10-06T00:28:24.409Z,13.90
2022-10-06T00:30:53.599Z,13.90
2022-10-06T00:33:21.056Z,13.60
2022-10-06T00:35:56.772Z,14.40
2022-10-06T00:38:24.779Z,13.80
2022-10-06T00:40:52.267Z,13.70
2022-10-06T00:43:41.526Z,13.80
2022-10-06T00:46:13.699Z,13.70
2022-10-06T00:48:41.563Z,14.00
2022-10-06T00:51:08.915Z,13.70
2022-10-06T00:53:36.422Z,13.60
2022-10-06T00:56:03.724Z,13.50
2022-10-06T00:58:31.835Z,13.60
2022-10-06T01:00:59.730Z,13.60
2022-10-06T01:03:38.786Z,14.10
2022-10-06T01:06:06.574Z,13.60
2022-10-06T01:08:34.799Z,13.60
2022-10-06T01:11:02.209Z,13.50
2022-10-06T01:13:32.401Z,13.50
2022-10-06T01:16:26.818Z,13.40
2022-10-06T01:18:55.549Z,13.40
2022-10-06T01:21:33.197Z,13.40
2022-10-06T01:24:03.492Z,13.40
2022-10-06T01:26:35.690Z,13.40
2022-10-06T01:29:03.460Z,13.40
2022-10-06T01:31:31.411Z,14.30
2022-10-06T01:33:59.613Z,13.20
2022-10-06T01:36:26.931Z,13.60
2022-10-06T01:38:54.364Z,13.20
2022-10-06T01:41:22.588Z,13.10
2022-10-06T01:43:50.126Z,13.50
2022-10-06T01:46:17.450Z,13.10
2022-10-06T01:48:44.761Z,13.10
2022-10-06T01:51:18.257Z,13.10
2022-10-06T01:53:45.521Z,13.10
2022-10-06T01:56:13.726Z,13.30
2022-10-06T01:58:41.833Z,13.20
2022-10-06T02:01:10.044Z,13.00
2022-10-06T02:03:39.024Z,12.70
2022-10-06T02:06:07.931Z,12.90
2022-10-06T02:08:35.814Z,12.60
2022-10-06T02:11:10.829Z,12.90
2022-10-06T02:13:41.642Z,12.60
2022-10-06T02:16:10.001Z,13.40
2022-10-06T02:18:37.523Z,12.90
2022-10-06T02:21:04.971Z,13.40
2022-10-06T02:23:33.022Z,12.90
2022-10-06T02:26:05.130Z,13.10
2022-10-06T02:28:33.618Z,12.80
2022-10-06T02:31:05.431Z,12.80
2022-10-06T02:33:33.786Z,12.80
2022-10-06T02:36:01.857Z,13.40
2022-10-06T02:38:30.166Z,12.70
2022-10-06T02:40:59.872Z,12.70
2022-10-06T02:43:31.673Z,12.70
2022-10-06T02:46:18.921Z,13.60
2022-10-06T02:48:51.305Z,13.00
2022-10-06T02:51:20.148Z,12.70
2022-10-06T02:53:48.997Z,12.70
2022-10-06T02:56:23.528Z,12.70
2022-10-06T02:58:52.680Z,13.00
2022-10-06T03:01:28.631Z,12.70
2022-10-06T03:03:59.191Z,13.20
2022-10-06T03:06:29.878Z,14.00
2022-10-06T03:09:05.284Z,12.60
2022-10-06T03:11:35.465Z,12.70
2022-10-06T03:14:04.561Z,12.70
2022-10-06T03:16:51.905Z,13.60
2022-10-06T03:19:26.212Z,12.70
2022-10-06T03:21:54.276Z,12.90
2022-10-06T03:24:25.861Z,14.00
2022-10-06T03:26:58.397Z,12.50
2022-10-06T03:29:26.888Z,12.70
2022-10-06T03:31:57.277Z,12.60
2022-10-06T03:34:24.945Z,12.90
2022-10-06T03:36:52.834Z,12.60
2022-10-06T03:39:22.571Z,14.00
2022-10-06T03:41:51.009Z,12.40
2022-10-06T03:44:18.674Z,13.60
2022-10-06T03:46:46.018Z,12.60
2022-10-06T03:49:13.426Z,13.30
2022-10-06T03:51:43.322Z,12.60
2022-10-06T03:54:16.023Z,14.00
2022-10-06T03:56:46.595Z,13.90
2022-10-06T03:59:17.429Z,13.90
2022-10-06T04:01:47.946Z,13.20
2022-10-06T04:04:20.300Z,12.40
2022-10-06T04:06:51.491Z,12.80
2022-10-06T04:09:20.742Z,12.50
2022-10-06T04:11:48.221Z,13.30
2022-10-06T04:14:16.773Z,12.80
2022-10-06T04:16:50.440Z,12.50
2022-10-06T04:19:38.000Z,12.50
2022-10-06T04:22:06.099Z,14.40
2022-10-06T04:24:34.729Z,10.50
2022-10-06T04:27:21.544Z,12.60
2022-10-06T04:29:57.905Z,12.40
2022-10-06T04:32:25.613Z,12.80
2022-10-06T04:34:53.035Z,12.30
2022-10-06T04:37:20.965Z,13.80
2022-10-06T04:39:49.471Z,12.30
2022-10-06T04:42:17.796Z,11.90
2022-10-06T04:44:45.202Z,13.40
2022-10-06T04:47:12.613Z,13.20
2022-10-06T04:49:40.093Z,12.00
2022-10-06T04:52:08.244Z,12.20
2022-10-06T04:54:37.736Z,12.40
2022-10-06T04:57:06.462Z,12.30
2022-10-06T04:59:52.301Z,12.20
2022-10-06T05:02:20.820Z,12.20
2022-10-06T05:04:52.138Z,12.00
2022-10-06T05:07:21.375Z,12.10
2022-10-06T05:09:48.792Z,13.30
2022-10-06T05:12:16.158Z,12.40
2022-10-06T05:14:44.564Z,13.20
2022-10-06T05:17:12.091Z,13.40
2022-10-06T05:19:40.277Z,12.10
2022-10-06T05:22:09.532Z,12.40
2022-10-06T05:24:37.120Z,12.00
2022-10-06T05:27:06.492Z,11.90
2022-10-06T05:29:34.976Z,13.50
2022-10-06T05:32:05.050Z,13.20
2022-10-06T05:34:33.629Z,11.60
2022-10-06T05:37:01.493Z,12.00
2022-10-06T05:39:28.940Z,11.90
2022-10-06T05:41:58.808Z,11.80
2022-10-06T05:44:27.040Z,11.90
2022-10-06T05:46:56.021Z,11.70
2022-10-06T05:49:24.047Z,12.50
2022-10-06T05:51:56.235Z,12.40
2022-10-06T05:54:34.839Z,12.10
2022-10-06T05:57:02.473Z,11.40
2022-10-06T05:59:32.297Z,11.60
2022-10-06T06:02:00.810Z,13.30
2022-10-06T06:04:34.200Z,12.60
2022-10-06T06:07:01.875Z,13.50
2022-10-06T06:09:29.273Z,12.40
2022-10-06T06:12:00.098Z,11.60
2022-10-06T06:15:06.251Z,11.20
2022-10-06T06:17:39.210Z,12.10
2022-10-06T06:20:07.654Z,11.50
2022-10-06T06:22:35.875Z,11.70
2022-10-06T06:25:04.304Z,11.70
2022-10-06T06:27:31.682Z,11.80
2022-10-06T06:29:59.127Z,12.10
2022-10-06T06:32:27.998Z,12.30
2022-10-06T06:34:55.706Z,11.70
2022-10-06T06:37:23.062Z,12.10
2022-10-06T06:39:50.380Z,11.80
2022-10-06T06:42:18.790Z,11.80
2022-10-06T06:44:49.012Z,11.90
2022-10-06T06:47:39.787Z,11.90
2022-10-06T06:50:10.385Z,12.00
2022-10-06T06:52:39.455Z,11.90
2022-10-06T06:55:09.761Z,12.10
2022-10-06T06:57:37.241Z,12.10
2022-10-06T07:00:08.004Z,12.70
2022-10-06T07:02:36.846Z,12.30
2022-10-06T07:05:05.041Z,12.30
2022-10-06T07:07:32.577Z,12.40
2022-10-06T07:10:00.780Z,12.40
2022-10-06T07:12:29.734Z,12.50
2022-10-06T07:15:17.082Z,12.60
2022-10-06T07:18:07.108Z,12.50
2022-10-06T07:20:54.073Z,13.10
2022-10-06T07:23:40.110Z,12.70
2022-10-06T07:26:12.239Z,13.70
2022-10-06T07:28:42.340Z,12.80
2022-10-06T07:31:10.444Z,13.50
2022-10-06T07:33:39.084Z,14.20
2022-10-06T07:36:06.562Z,12.90
2022-10-06T07:38:34.670Z,13.00
2022-10-06T07:43:55.997Z,14.60
2022-10-06T07:46:25.120Z,13.20
2022-10-06T07:49:17.498Z,13.20
2022-10-06T07:51:45.911Z,13.20
2022-10-06T07:54:13.403Z,13.40
2022-10-06T07:56:54.020Z,13.50
2022-10-06T07:59:21.835Z,13.50
2022-10-06T08:01:51.253Z,14.90
2022-10-06T08:04:18.610Z,13.60
2022-10-06T08:06:47.649Z,14.50
2022-10-06T08:09:15.021Z,13.80
2022-10-06T08:11:44.760Z,13.80
2022-10-06T08:14:14.983Z,13.90
2022-10-06T08:16:42.407Z,14.80
2022-10-06T08:19:11.559Z,13.90
2022-10-06T08:21:39.606Z,14.10
2022-10-06T08:24:07.245Z,14.80
2022-10-06T08:26:34.699Z,14.20
2022-10-06T08:29:04.783Z,14.00
2022-10-06T08:31:32.638Z,14.30
2022-10-06T08:34:01.337Z,14.30
2022-10-06T08:36:31.868Z,14.30
2022-10-06T08:39:00.249Z,14.70
2022-10-06T08:41:40.127Z,14.50
2022-10-06T08:44:18.463Z,14.50
2022-10-06T08:47:13.872Z,14.60
2022-10-06T08:49:44.575Z,14.70
2022-10-06T08:52:49.678Z,14.50
2022-10-06T08:55:29.045Z,14.80
2022-10-06T08:58:29.099Z,14.80
2022-10-06T09:01:23.423Z,14.90
2022-10-06T09:03:56.341Z,14.90
2022-10-06T09:06:32.186Z,15.10
2022-10-06T09:09:13.234Z,15.20
2022-10-06T09:11:43.587Z,15.30
2022-10-06T09:14:28.662Z,15.30
2022-10-06T09:17:02.698Z,15.40
2022-10-06T09:19:38.002Z,15.40
2022-10-06T09:22:12.149Z,15.70
2022-10-06T09:24:47.477Z,16.50
2022-10-06T09:27:34.932Z,15.70
2022-10-06T09:30:04.603Z,15.80
2022-10-06T09:32:34.657Z,16.00
2022-10-06T09:35:12.789Z,16.10
2022-10-06T09:38:00.664Z,16.30
2022-10-06T09:40:36.452Z,16.60
2022-10-06T09:43:25.730Z,16.80
2022-10-06T09:45:55.442Z,16.90
2022-10-06T09:48:25.779Z,16.90
2022-10-06T09:51:14.026Z,16.90
2022-10-06T09:54:14.234Z,17.10
2022-10-06T09:56:47.337Z,17.00
2022-10-06T09:59:23.759Z,16.90
2022-10-06T10:01:55.705Z,17.00
2022-10-06T10:04:30.329Z,17.70
2022-10-06T10:07:36.461Z,17.30
2022-10-06T10:10:25.393Z,17.00
2022-10-06T10:12:58.004Z,16.90
2022-10-06T10:15:39.244Z,17.40
2022-10-06T10:18:13.668Z,17.00
2022-10-06T10:20:50.554Z,17.10
2022-10-06T10:23:30.893Z,17.00
2022-10-06T10:26:27.895Z,17.80
2022-10-06T10:29:15.153Z,17.00
2022-10-06T10:31:42.521Z,17.00
2022-10-06T10:34:24.989Z,17.10
2022-10-06T10:37:12.499Z,17.00
2022-10-06T10:39:52.654Z,17.10
2022-10-06T10:42:54.826Z,17.20
2022-10-06T10:45:32.353Z,17.10
2022-10-06T10:48:01.493Z,17.00
2022-10-06T10:50:50.907Z,17.30
2022-10-06T10:53:49.808Z,16.90
2022-10-06T10:56:21.101Z,16.90
2022-10-06T10:58:53.130Z,17.10
2022-10-06T11:01:44.168Z,17.20
2022-10-06T11:04:13.437Z,17.40
2022-10-06T11:07:31.368Z,17.50
2022-10-06T11:10:10.544Z,17.60
2022-10-06T11:12:52.872Z,17.50
2022-10-06T11:16:00.616Z,18.00
2022-10-06T11:18:33.638Z,17.60
2022-10-06T11:21:27.783Z,17.60
2022-10-06T11:24:21.386Z,17.70
2022-10-06T11:27:03.747Z,17.60
2022-10-06T11:29:52.752Z,17.60
2022-10-06T11:33:01.414Z,17.60
2022-10-06T11:35:37.754Z,18.00
2022-10-06T11:38:08.309Z,17.30
2022-10-06T11:40:54.208Z,17.90
2022-10-06T11:43:39.683Z,17.60
2022-10-06T11:46:12.774Z,17.60
2022-10-06T11:48:40.603Z,17.60
2022-10-06T11:51:21.474Z,17.70
2022-10-06T11:53:48.897Z,17.90
2022-10-06T11:56:19.383Z,17.90
2022-10-06T11:58:55.646Z,17.90
2022-10-06T12:01:35.042Z,18.00
2022-10-06T12:04:08.329Z,18.00
2022-10-06T12:06:47.546Z,18.10
2022-10-06T12:09:32.765Z,18.10
2022-10-06T12:12:07.064Z,18.20
2022-10-06T12:16:32.286Z,18.30
2022-10-06T12:18:00.764Z,18.40
2022-10-06T12:20:53.410Z,18.30
2022-10-06T12:23:38.315Z,18.20
2022-10-06T12:26:20.531Z,18.20
2022-10-06T12:28:56.390Z,18.20
2022-10-06T12:31:44.903Z,18.10
2022-10-06T12:34:40.023Z,18.10
2022-10-06T12:37:29.057Z,18.20
2022-10-06T12:40:33.880Z,18.20
2022-10-06T12:43:19.388Z,18.20
2022-10-06T12:45:56.110Z,18.20
2022-10-06T12:48:31.318Z,18.20
2022-10-06T12:51:05.926Z,18.30
2022-10-06T12:53:52.402Z,18.40
2022-10-06T12:56:31.705Z,18.30
2022-10-06T12:59:19.756Z,18.20
2022-10-06T13:01:52.393Z,18.10
2022-10-06T13:04:40.490Z,18.00
2022-10-06T13:07:23.621Z,18.50
2022-10-06T13:10:15.532Z,18.10
2022-10-06T13:12:50.179Z,18.20
2022-10-06T13:15:22.373Z,18.20
2022-10-06T13:18:10.398Z,18.20
2022-10-06T13:20:41.836Z,18.20
2022-10-06T13:23:11.825Z,18.30
2022-10-06T13:25:57.711Z,18.20
2022-10-06T13:28:29.361Z,16.70
2022-10-06T13:31:21.158Z,18.20
2022-10-06T13:34:07.257Z,18.10
2022-10-06T13:36:38.651Z,18.20
2022-10-06T13:39:11.910Z,18.10
2022-10-06T13:42:10.896Z,18.30
2022-10-06T13:44:56.258Z,18.20
2022-10-06T13:47:25.579Z,18.20
2022-10-06T13:50:03.742Z,18.20
2022-10-06T13:52:36.511Z,18.20
2022-10-06T13:55:24.350Z,18.10
2022-10-06T13:58:08.556Z,18.20
2022-10-06T14:00:58.055Z,18.20
2022-10-06T14:03:33.794Z,18.20
2022-10-06T14:06:22.130Z,18.10
2022-10-06T14:08:54.204Z,18.10
2022-10-06T14:11:28.073Z,18.20
2022-10-06T14:14:02.065Z,18.20
2022-10-06T14:16:30.147Z,18.20
2022-10-06T14:19:02.931Z,18.30
2022-10-06T14:21:34.076Z,18.10
2022-10-06T14:24:07.755Z,18.10
2022-10-06T14:26:37.643Z,18.10
2022-10-06T14:29:04.953Z,18.10
2022-10-06T14:31:34.029Z,18.10
2022-10-06T14:34:02.622Z,17.90
2022-10-06T14:36:35.439Z,17.60
2022-10-06T14:39:04.842Z,17.80
2022-10-06T14:41:32.596Z,17.70
2022-10-06T14:44:02.881Z,17.80
2022-10-06T14:46:30.293Z,17.80
2022-10-06T14:48:58.447Z,17.80
2022-10-06T14:51:29.301Z,17.70
2022-10-06T14:53:59.495Z,18.10
2022-10-06T14:56:29.298Z,17.70
2022-10-06T14:58:57.108Z,17.70
2022-10-06T15:01:26.665Z,17.70
2022-10-06T15:03:59.738Z,17.70
2022-10-06T15:06:46.299Z,17.60
2022-10-06T15:09:13.712Z,17.60
2022-10-06T15:11:41.675Z,17.60
2022-10-06T15:14:09.891Z,18.50
2022-10-06T15:16:40.636Z,17.50
2022-10-06T15:19:09.096Z,17.40
2022-10-06T15:21:39.062Z,17.40
2022-10-06T15:24:08.150Z,17.30
2022-10-06T15:26:54.049Z,18.50
2022-10-06T15:29:21.459Z,17.20
2022-10-06T15:31:54.703Z,17.20
2022-10-06T15:34:26.297Z,17.00
2022-10-06T15:36:55.158Z,17.10
2022-10-06T15:39:40.743Z,17.00
2022-10-06T15:42:08.718Z,17.00
2022-10-06T15:44:36.399Z,16.90
2022-10-06T15:47:05.637Z,16.80
2022-10-06T15:49:37.659Z,16.90
2022-10-06T15:52:05.545Z,16.60
2022-10-06T15:54:37.364Z,17.10
2022-10-06T15:57:08.488Z,16.50
2022-10-06T15:59:37.050Z,16.50
2022-10-06T16:02:07.786Z,16.40
2022-10-06T16:04:40.464Z,17.60
2022-10-06T16:07:14.265Z,16.30
2022-10-06T16:09:44.373Z,16.30
2022-10-06T16:12:16.345Z,16.50
2022-10-06T16:14:44.274Z,16.70
2022-10-06T16:17:12.817Z,16.10
2022-10-06T16:19:40.497Z,16.10
2022-10-06T16:22:12.981Z,16.00
2022-10-06T16:24:40.637Z,16.00
2022-10-06T16:27:12.824Z,16.80
2022-10-06T16:29:40.184Z,15.90
2022-10-06T16:32:07.714Z,15.90
2022-10-06T16:34:35.079Z,15.80
2022-10-06T16:37:02.388Z,16.20
2022-10-06T16:39:29.711Z,15.80
2022-10-06T16:41:56.996Z,15.70
2022-10-06T16:44:24.365Z,15.70
2022-10-06T16:46:51.762Z,15.70
2022-10-06T16:49:19.676Z,15.60
2022-10-06T16:51:47.042Z,15.50
2022-10-06T16:54:17.295Z,16.10
2022-10-06T16:56:47.061Z,15.50
2022-10-06T16:59:19.710Z,16.00
2022-10-06T17:01:48.702Z,16.10
2022-10-06T17:04:17.716Z,15.30
2022-10-06T17:06:46.757Z,15.30
2022-10-06T17:09:16.463Z,15.40
2022-10-06T17:11:49.412Z,15.20
2022-10-06T17:14:17.814Z,15.10
2022-10-06T17:16:46.833Z,15.10
2022-10-06T17:19:16.487Z,15.00
2022-10-06T17:21:46.691Z,15.00
2022-10-06T17:24:17.943Z,13.90
2022-10-06T17:26:47.797Z,14.90
2022-10-06T17:29:21.367Z,14.90
2022-10-06T17:31:53.303Z,14.70
2022-10-06T17:34:22.937Z,14.80
2022-10-06T17:36:52.415Z,14.60
2022-10-06T17:39:24.440Z,15.00
2022-10-06T17:41:53.857Z,15.00
2022-10-06T17:44:24.195Z,15.60
2022-10-06T17:46:55.361Z,15.20
2022-10-06T17:49:24.506Z,14.70
2022-10-06T17:51:53.829Z,14.30
2022-10-06T17:54:23.555Z,14.20
2022-10-06T17:56:53.485Z,14.80
2022-10-06T17:59:23.566Z,14.20
2022-10-06T18:01:52.054Z,14.20
2022-10-06T18:04:19.951Z,14.10
2022-10-06T18:06:48.084Z,14.00
2022-10-06T18:09:16.161Z,14.50
2022-10-06T18:12:04.011Z,14.00
2022-10-06T18:14:34.979Z,13.90
2022-10-06T18:17:03.731Z,14.60
2022-10-06T18:19:33.782Z,13.80
2022-10-06T18:22:10.019Z,15.40
2022-10-06T18:24:38.832Z,13.70
2022-10-06T18:27:07.839Z,13.70
2022-10-06T18:29:37.035Z,13.70
2022-10-06T18:32:40.546Z,13.70
2022-10-06T18:37:40.574Z,13.30
2022-10-06T18:40:09.958Z,13.50
2022-10-06T18:42:39.064Z,13.10
2022-10-06T18:45:26.552Z,13.80
2022-10-06T18:48:12.458Z,13.30
2022-10-06T18:50:40.169Z,13.20
2022-10-06T18:53:07.515Z,13.20
2022-10-06T18:55:35.103Z,14.30
2022-10-06T18:58:04.594Z,13.10
2022-10-06T19:00:32.078Z,13.00
2022-10-06T19:02:59.423Z,13.10
2022-10-06T19:05:26.922Z,13.30
2022-10-06T19:07:54.384Z,12.90
2022-10-06T19:10:22.088Z,13.30
2022-10-06T19:12:49.763Z,12.80
2022-10-06T19:15:20.761Z,12.80
2022-10-06T19:17:49.943Z,12.70
2022-10-06T19:20:18.389Z,12.70
2022-10-06T19:22:47.476Z,12.60
2022-10-06T19:25:18.718Z,12.40
2022-10-06T19:27:46.519Z,12.60
2022-10-06T19:30:14.502Z,13.90
2022-10-06T19:32:41.970Z,12.50
2022-10-06T19:35:10.581Z,12.80
2022-10-06T19:37:38.834Z,14.60
2022-10-06T19:40:08.577Z,12.50
2022-10-06T19:42:47.826Z,12.40
2022-10-06T19:45:16.555Z,12.80
2022-10-06T19:47:45.319Z,12.80
2022-10-06T19:50:13.470Z,12.80
2022-10-06T19:52:42.103Z,12.90
2022-10-06T19:55:09.616Z,12.20
2022-10-06T19:57:37.145Z,12.20
2022-10-06T20:00:06.664Z,12.10
2022-10-06T20:02:42.867Z,12.10
2022-10-06T20:05:15.853Z,11.90
2022-10-06T20:07:45.574Z,12.00
2022-10-06T20:10:13.644Z,12.00
2022-10-06T20:12:41.727Z,11.90
2022-10-06T20:15:10.152Z,11.90
2022-10-06T20:17:37.811Z,12.00
2022-10-06T20:20:05.730Z,13.40
2022-10-06T20:22:33.147Z,11.80
2022-10-06T20:25:01.983Z,14.00
2022-10-06T20:27:29.448Z,11.80
2022-10-06T20:29:58.001Z,11.70
2022-10-06T20:32:25.321Z,11.70
2022-10-06T20:34:52.758Z,12.00
2022-10-06T20:37:20.118Z,12.00
2022-10-06T20:40:05.747Z,12.80
2022-10-06T20:42:33.635Z,12.20
2022-10-06T20:45:01.049Z,12.10
2022-10-06T20:47:29.796Z,11.70
2022-10-06T20:49:57.079Z,11.60
2022-10-06T20:52:24.570Z,12.80
2022-10-06T20:54:52.002Z,11.80
2022-10-06T20:57:19.624Z,11.70
2022-10-06T20:59:46.943Z,12.20
2022-10-06T21:02:14.298Z,12.00
2022-10-06T21:04:45.085Z,11.50
2022-10-06T21:07:12.438Z,11.90
2022-10-06T21:09:39.824Z,11.70
2022-10-06T21:12:07.267Z,11.40
2022-10-06T21:14:36.170Z,11.40
2022-10-06T21:17:03.616Z,12.30
2022-10-06T21:19:31.458Z,11.70
2022-10-06T21:21:59.334Z,11.20
2022-10-06T21:24:26.702Z,13.20
2022-10-06T21:26:54.163Z,11.40
2022-10-06T21:29:21.687Z,11.90
2022-10-06T21:31:49.055Z,9.90
2022-10-06T21:34:16.387Z,12.90
2022-10-06T21:36:44.172Z,11.60
2022-10-06T21:39:12.927Z,11.50
2022-10-06T21:41:40.690Z,11.30
2022-10-06T21:44:16.351Z,12.00
2022-10-06T21:46:54.584Z,11.90
2022-10-06T21:49:23.920Z,11.00
2022-10-06T21:51:53.719Z,11.80
2022-10-06T21:54:22.422Z,11.80
2022-10-06T21:56:50.482Z,12.70
2022-10-06T21:59:18.140Z,10.70
2022-10-06T22:01:46.631Z,11.30
2022-10-06T22:04:15.275Z,10.80
2022-10-06T22:06:44.262Z,10.70
2022-10-06T22:09:17.272Z,12.40
2022-10-06T22:11:45.211Z,10.80
2022-10-06T22:14:15.751Z,10.90
2022-10-06T22:16:43.493Z,11.50
2022-10-06T22:19:12.991Z,10.60
2022-10-06T22:21:46.230Z,12.00
2022-10-06T22:24:16.804Z,10.60
2022-10-06T22:26:44.397Z,11.80
2022-10-06T22:29:14.227Z,10.60
2022-10-06T22:31:44.635Z,11.50
2022-10-06T22:34:13.853Z,12.10
2022-10-06T22:36:41.547Z,10.10
2022-10-06T22:39:09.082Z,10.60
2022-10-06T22:41:37.210Z,10.30
2022-10-06T22:44:04.718Z,10.20
2022-10-06T22:46:35.485Z,10.50
2022-10-06T22:49:03.432Z,10.60
2022-10-06T22:51:30.894Z,10.60
2022-10-06T22:53:59.878Z,10.20
2022-10-06T22:56:29.474Z,10.60
2022-10-06T22:58:59.585Z,10.60
2022-10-06T23:01:28.728Z,10.20
2022-10-06T23:03:56.575Z,10.30
2022-10-06T23:06:24.554Z,12.30
2022-10-06T23:08:52.395Z,11.40
2022-10-06T23:11:21.532Z,10.60
2022-10-06T23:13:50.287Z,12.20
2022-10-06T23:16:19.050Z,12.50
2022-10-06T23:18:47.345Z,10.50
2022-10-06T23:21:24.104Z,12.30
2022-10-06T23:23:54.221Z,11.40
2022-10-06T23:26:22.992Z,10.40
2022-10-06T23:28:52.753Z,12.00
2022-10-06T23:31:20.184Z,11.80
2022-10-06T23:33:48.160Z,10.70
2022-10-06T23:36:15.507Z,10.70
2022-10-06T23:38:42.820Z,10.50
2022-10-06T23:41:10.944Z,10.50
2022-10-06T23:43:38.235Z,10.20
2022-10-06T23:46:06.016Z,10.30
2022-10-06T23:48:33.478Z,10.70
2022-10-06T23:51:10.339Z,11.20
2022-10-06T23:53:38.166Z,11.50
2022-10-06T23:56:06.543Z,11.20
2022-10-06T23:58:34.147Z,10.80
